sensor_id;sensor_type;location;lat;lon;timestamp;P1;durP1;ratioP1;P2;durP2;ratioP2
16699;SDS011;8466;52.286;21.124;2023-11-18T00:01:07;16.40;;;12.90;;
16699;SDS011;8466;52.286;21.124;2023-11-18T00:03:36;17.47;;;13.23;;
16699;SDS011;8466;52.286;21.124;2023-11-18T00:06:06;15.17;;;12.43;;
16699;SDS011;8466;52.286;21.124;2023-11-18T00:08:35;15.77;;;12.30;;
16699;SDS011;8466;52.286;21.124;2023-11-18T00:11:04;14.97;;;12.33;;
16699;SDS011;8466;52.286;21.124;2023-11-18T00:13:33;15.73;;;12.77;;
16699;SDS011;8466;52.286;21.124;2023-11-18T00:16:04;15.53;;;12.53;;
16699;SDS011;8466;52.286;21.124;2023-11-18T00:18:33;16.47;;;12.60;;
16699;SDS011;8466;52.286;21.124;2023-11-18T00:21:01;15.93;;;12.77;;
16699;SDS011;8466;52.286;21.124;2023-11-18T00:23:31;15.13;;;11.97;;
16699;SDS011;8466;52.286;21.124;2023-11-18T00:25:59;14.47;;;12.80;;
16699;SDS011;8466;52.286;21.124;2023-11-18T00:28:28;15.73;;;12.60;;
16699;SDS011;8466;52.286;21.124;2023-11-18T00:30:57;15.00;;;12.30;;
16699;SDS011;8466;52.286;21.124;2023-11-18T00:33:28;16.93;;;13.53;;
16699;SDS011;8466;52.286;21.124;2023-11-18T00:35:56;19.13;;;12.90;;
16699;SDS011;8466;52.286;21.124;2023-11-18T00:38:26;15.77;;;12.23;;
16699;SDS011;8466;52.286;21.124;2023-11-18T00:40:55;15.83;;;12.83;;
16699;SDS011;8466;52.286;21.124;2023-11-18T00:43:24;13.90;;;11.50;;
16699;SDS011;8466;52.286;21.124;2023-11-18T00:45:53;15.20;;;12.37;;
16699;SDS011;8466;52.286;21.124;2023-11-18T00:48:22;14.53;;;11.63;;
16699;SDS011;8466;52.286;21.124;2023-11-18T00:50:52;17.77;;;13.13;;
16699;SDS011;8466;52.286;21.124;2023-11-18T00:53:22;14.87;;;12.63;;
16699;SDS011;8466;52.286;21.124;2023-11-18T00:55:51;14.43;;;12.03;;
16699;SDS011;8466;52.286;21.124;2023-11-18T00:58:20;16.07;;;12.47;;
16699;SDS011;8466;52.286;21.124;2023-11-18T01:00:49;14.47;;;11.60;;
16699;SDS011;8466;52.286;21.124;2023-11-18T01:03:17;15.60;;;12.53;;
16699;SDS011;8466;52.286;21.124;2023-11-18T01:05:46;13.07;;;11.60;;
16699;SDS011;8466;52.286;21.124;2023-11-18T01:08:16;12.87;;;11.37;;
16699;SDS011;8466;52.286;21.124;2023-11-18T01:10:45;13.03;;;11.17;;
16699;SDS011;8466;52.286;21.124;2023-11-18T01:13:14;13.30;;;11.67;;
16699;SDS011;8466;52.286;21.124;2023-11-18T01:15:42;12.90;;;10.73;;
16699;SDS011;8466;52.286;21.124;2023-11-18T01:18:11;14.07;;;10.40;;
16699;SDS011;8466;52.286;21.124;2023-11-18T01:20:40;11.77;;;10.00;;
16699;SDS011;8466;52.286;21.124;2023-11-18T01:23:09;11.37;;;10.17;;
16699;SDS011;8466;52.286;21.124;2023-11-18T01:25:39;12.33;;;10.73;;
16699;SDS011;8466;52.286;21.124;2023-11-18T01:28:08;12.67;;;10.27;;
16699;SDS011;8466;52.286;21.124;2023-11-18T01:30:36;11.27;;;9.97;;
16699;SDS011;8466;52.286;21.124;2023-11-18T01:33:05;13.07;;;10.27;;
16699;SDS011;8466;52.286;21.124;2023-11-18T01:35:34;12.83;;;10.13;;
16699;SDS011;8466;52.286;21.124;2023-11-18T01:38:03;14.03;;;11.07;;
16699;SDS011;8466;52.286;21.124;2023-11-18T01:40:32;10.90;;;9.40;;
16699;SDS011;8466;52.286;21.124;2023-11-18T01:43:03;12.07;;;9.77;;
16699;SDS011;8466;52.286;21.124;2023-11-18T01:45:38;12.03;;;9.40;;
16699;SDS011;8466;52.286;21.124;2023-11-18T01:48:07;11.40;;;9.83;;
16699;SDS011;8466;52.286;21.124;2023-11-18T01:50:37;10.70;;;9.50;;
16699;SDS011;8466;52.286;21.124;2023-11-18T01:53:08;12.27;;;9.80;;
16699;SDS011;8466;52.286;21.124;2023-11-18T01:55:37;9.80;;;8.80;;
16699;SDS011;8466;52.286;21.124;2023-11-18T01:58:08;10.83;;;8.90;;
16699;SDS011;8466;52.286;21.124;2023-11-18T02:00:37;10.87;;;8.63;;
16699;SDS011;8466;52.286;21.124;2023-11-18T02:03:09;11.17;;;8.50;;
16699;SDS011;8466;52.286;21.124;2023-11-18T02:05:38;10.90;;;8.60;;
16699;SDS011;8466;52.286;21.124;2023-11-18T02:08:09;9.70;;;8.70;;
16699;SDS011;8466;52.286;21.124;2023-11-18T02:10:42;10.87;;;8.60;;
16699;SDS011;8466;52.286;21.124;2023-11-18T02:13:21;9.53;;;8.53;;
16699;SDS011;8466;52.286;21.124;2023-11-18T02:15:55;9.70;;;8.40;;
16699;SDS011;8466;52.286;21.124;2023-11-18T02:18:24;8.70;;;7.80;;
16699;SDS011;8466;52.286;21.124;2023-11-18T02:20:54;9.63;;;8.33;;
16699;SDS011;8466;52.286;21.124;2023-11-18T02:23:24;8.63;;;7.73;;
16699;SDS011;8466;52.286;21.124;2023-11-18T02:25:55;8.87;;;7.97;;
16699;SDS011;8466;52.286;21.124;2023-11-18T02:28:24;8.10;;;7.13;;
16699;SDS011;8466;52.286;21.124;2023-11-18T02:30:54;9.33;;;7.97;;
16699;SDS011;8466;52.286;21.124;2023-11-18T02:33:27;10.00;;;7.80;;
16699;SDS011;8466;52.286;21.124;2023-11-18T02:36:02;8.73;;;7.37;;
16699;SDS011;8466;52.286;21.124;2023-11-18T02:38:39;9.07;;;7.67;;
16699;SDS011;8466;52.286;21.124;2023-11-18T02:41:14;8.27;;;7.47;;
16699;SDS011;8466;52.286;21.124;2023-11-18T02:43:45;8.53;;;7.60;;
16699;SDS011;8466;52.286;21.124;2023-11-18T02:46:15;8.00;;;7.10;;
16699;SDS011;8466;52.286;21.124;2023-11-18T02:48:44;8.77;;;7.60;;
16699;SDS011;8466;52.286;21.124;2023-11-18T02:51:13;8.80;;;7.87;;
16699;SDS011;8466;52.286;21.124;2023-11-18T02:53:43;9.07;;;6.87;;
16699;SDS011;8466;52.286;21.124;2023-11-18T02:56:12;7.73;;;6.93;;
16699;SDS011;8466;52.286;21.124;2023-11-18T02:58:42;7.83;;;7.00;;
16699;SDS011;8466;52.286;21.124;2023-11-18T03:01:11;7.53;;;6.70;;
16699;SDS011;8466;52.286;21.124;2023-11-18T03:03:40;7.23;;;6.40;;
16699;SDS011;8466;52.286;21.124;2023-11-18T03:06:09;7.20;;;6.50;;
16699;SDS011;8466;52.286;21.124;2023-11-18T03:08:38;8.67;;;6.67;;
16699;SDS011;8466;52.286;21.124;2023-11-18T03:11:08;7.40;;;6.63;;
16699;SDS011;8466;52.286;21.124;2023-11-18T03:13:38;7.70;;;6.90;;
16699;SDS011;8466;52.286;21.124;2023-11-18T03:16:07;7.47;;;6.77;;
16699;SDS011;8466;52.286;21.124;2023-11-18T03:18:39;7.30;;;6.60;;
16699;SDS011;8466;52.286;21.124;2023-11-18T03:21:10;7.47;;;6.47;;
16699;SDS011;8466;52.286;21.124;2023-11-18T03:23:40;6.70;;;6.00;;
16699;SDS011;8466;52.286;21.124;2023-11-18T03:26:09;6.27;;;5.57;;
16699;SDS011;8466;52.286;21.124;2023-11-18T03:28:39;6.33;;;5.63;;
16699;SDS011;8466;52.286;21.124;2023-11-18T03:31:08;6.80;;;6.10;;
16699;SDS011;8466;52.286;21.124;2023-11-18T03:33:37;8.47;;;6.10;;
16699;SDS011;8466;52.286;21.124;2023-11-18T03:36:06;6.63;;;5.67;;
16699;SDS011;8466;52.286;21.124;2023-11-18T03:38:38;7.00;;;6.30;;
16699;SDS011;8466;52.286;21.124;2023-11-18T03:41:07;6.20;;;5.60;;
16699;SDS011;8466;52.286;21.124;2023-11-18T03:43:36;6.93;;;5.87;;
16699;SDS011;8466;52.286;21.124;2023-11-18T03:46:07;6.77;;;5.70;;
16699;SDS011;8466;52.286;21.124;2023-11-18T03:48:37;6.00;;;5.40;;
16699;SDS011;8466;52.286;21.124;2023-11-18T03:51:06;6.43;;;5.73;;
16699;SDS011;8466;52.286;21.124;2023-11-18T03:53:34;6.10;;;5.47;;
16699;SDS011;8466;52.286;21.124;2023-11-18T03:56:03;6.37;;;5.33;;
16699;SDS011;8466;52.286;21.124;2023-11-18T03:58:32;6.47;;;5.87;;
16699;SDS011;8466;52.286;21.124;2023-11-18T04:01:02;6.17;;;5.57;;
16699;SDS011;8466;52.286;21.124;2023-11-18T04:03:32;6.30;;;5.60;;
16699;SDS011;8466;52.286;21.124;2023-11-18T04:06:01;6.40;;;5.80;;
16699;SDS011;8466;52.286;21.124;2023-11-18T04:08:31;7.03;;;6.33;;
16699;SDS011;8466;52.286;21.124;2023-11-18T04:11:01;6.83;;;6.13;;
16699;SDS011;8466;52.286;21.124;2023-11-18T04:13:33;6.83;;;6.13;;
16699;SDS011;8466;52.286;21.124;2023-11-18T04:16:01;6.37;;;5.77;;
16699;SDS011;8466;52.286;21.124;2023-11-18T04:18:32;7.30;;;6.00;;
16699;SDS011;8466;52.286;21.124;2023-11-18T04:21:01;6.40;;;5.70;;
16699;SDS011;8466;52.286;21.124;2023-11-18T04:23:31;6.77;;;5.80;;
16699;SDS011;8466;52.286;21.124;2023-11-18T04:26:02;6.30;;;5.70;;
16699;SDS011;8466;52.286;21.124;2023-11-18T04:28:31;6.50;;;5.50;;
16699;SDS011;8466;52.286;21.124;2023-11-18T04:31:00;5.80;;;5.30;;
16699;SDS011;8466;52.286;21.124;2023-11-18T04:33:29;5.77;;;5.27;;
16699;SDS011;8466;52.286;21.124;2023-11-18T04:36:00;6.10;;;5.50;;
16699;SDS011;8466;52.286;21.124;2023-11-18T04:38:29;7.40;;;6.10;;
16699;SDS011;8466;52.286;21.124;2023-11-18T04:40:58;5.80;;;5.27;;
16699;SDS011;8466;52.286;21.124;2023-11-18T04:43:30;6.83;;;6.13;;
16699;SDS011;8466;52.286;21.124;2023-11-18T04:46:10;6.30;;;5.70;;
16699;SDS011;8466;52.286;21.124;2023-11-18T04:48:39;6.30;;;5.60;;
16699;SDS011;8466;52.286;21.124;2023-11-18T04:51:10;6.20;;;5.60;;
16699;SDS011;8466;52.286;21.124;2023-11-18T04:53:39;6.50;;;5.90;;
16699;SDS011;8466;52.286;21.124;2023-11-18T04:56:08;5.93;;;5.27;;
16699;SDS011;8466;52.286;21.124;2023-11-18T04:58:37;5.50;;;5.00;;
16699;SDS011;8466;52.286;21.124;2023-11-18T05:01:07;6.00;;;5.40;;
16699;SDS011;8466;52.286;21.124;2023-11-18T05:03:35;6.20;;;5.23;;
16699;SDS011;8466;52.286;21.124;2023-11-18T05:06:05;5.53;;;4.97;;
16699;SDS011;8466;52.286;21.124;2023-11-18T05:08:36;5.57;;;5.07;;
16699;SDS011;8466;52.286;21.124;2023-11-18T05:11:05;5.93;;;5.23;;
16699;SDS011;8466;52.286;21.124;2023-11-18T05:13:34;6.50;;;5.83;;
16699;SDS011;8466;52.286;21.124;2023-11-18T05:16:03;6.10;;;5.50;;
16699;SDS011;8466;52.286;21.124;2023-11-18T05:18:32;5.50;;;5.00;;
16699;SDS011;8466;52.286;21.124;2023-11-18T05:21:03;6.47;;;5.80;;
16699;SDS011;8466;52.286;21.124;2023-11-18T05:23:33;6.37;;;5.77;;
16699;SDS011;8466;52.286;21.124;2023-11-18T05:26:04;6.07;;;5.47;;
16699;SDS011;8466;52.286;21.124;2023-11-18T05:28:33;8.33;;;5.87;;
16699;SDS011;8466;52.286;21.124;2023-11-18T05:31:02;6.47;;;5.87;;
16699;SDS011;8466;52.286;21.124;2023-11-18T05:33:31;6.20;;;5.60;;
16699;SDS011;8466;52.286;21.124;2023-11-18T05:36:02;6.40;;;5.80;;
16699;SDS011;8466;52.286;21.124;2023-11-18T05:38:32;8.13;;;6.70;;
16699;SDS011;8466;52.286;21.124;2023-11-18T05:41:03;7.47;;;6.67;;
16699;SDS011;8466;52.286;21.124;2023-11-18T05:43:43;8.20;;;6.73;;
16699;SDS011;8466;52.286;21.124;2023-11-18T05:46:18;6.73;;;6.00;;
16699;SDS011;8466;52.286;21.124;2023-11-18T05:48:49;6.30;;;5.67;;
16699;SDS011;8466;52.286;21.124;2023-11-18T05:51:20;6.63;;;5.90;;
16699;SDS011;8466;52.286;21.124;2023-11-18T05:53:49;6.70;;;6.00;;
16699;SDS011;8466;52.286;21.124;2023-11-18T05:56:20;6.63;;;5.93;;
16699;SDS011;8466;52.286;21.124;2023-11-18T05:58:50;7.27;;;6.57;;
16699;SDS011;8466;52.286;21.124;2023-11-18T06:01:20;8.30;;;7.40;;
16699;SDS011;8466;52.286;21.124;2023-11-18T06:03:54;7.60;;;6.73;;
16699;SDS011;8466;52.286;21.124;2023-11-18T06:06:23;9.40;;;7.43;;
16699;SDS011;8466;52.286;21.124;2023-11-18T06:08:52;8.03;;;7.17;;
16699;SDS011;8466;52.286;21.124;2023-11-18T06:11:22;9.70;;;7.60;;
16699;SDS011;8466;52.286;21.124;2023-11-18T06:13:51;8.80;;;7.63;;
16699;SDS011;8466;52.286;21.124;2023-11-18T06:16:20;9.37;;;7.67;;
16699;SDS011;8466;52.286;21.124;2023-11-18T06:18:51;8.40;;;7.37;;
16699;SDS011;8466;52.286;21.124;2023-11-18T06:21:21;8.83;;;7.93;;
16699;SDS011;8466;52.286;21.124;2023-11-18T06:23:55;9.33;;;7.70;;
16699;SDS011;8466;52.286;21.124;2023-11-18T06:26:25;9.17;;;8.20;;
16699;SDS011;8466;52.286;21.124;2023-11-18T06:28:55;8.10;;;7.27;;
16699;SDS011;8466;52.286;21.124;2023-11-18T06:31:24;8.47;;;7.57;;
16699;SDS011;8466;52.286;21.124;2023-11-18T06:33:54;7.97;;;6.87;;
16699;SDS011;8466;52.286;21.124;2023-11-18T06:36:23;8.03;;;6.80;;
16699;SDS011;8466;52.286;21.124;2023-11-18T06:38:53;8.47;;;7.20;;
16699;SDS011;8466;52.286;21.124;2023-11-18T06:41:23;8.20;;;6.80;;
16699;SDS011;8466;52.286;21.124;2023-11-18T06:44:00;9.40;;;7.67;;
16699;SDS011;8466;52.286;21.124;2023-11-18T06:46:36;8.50;;;7.20;;
16699;SDS011;8466;52.286;21.124;2023-11-18T06:49:07;7.87;;;6.43;;
16699;SDS011;8466;52.286;21.124;2023-11-18T06:51:42;7.83;;;6.57;;
16699;SDS011;8466;52.286;21.124;2023-11-18T06:54:11;8.73;;;7.83;;
16699;SDS011;8466;52.286;21.124;2023-11-18T06:56:42;8.57;;;7.07;;
16699;SDS011;8466;52.286;21.124;2023-11-18T06:59:12;8.87;;;7.47;;
16699;SDS011;8466;52.286;21.124;2023-11-18T07:01:42;7.30;;;6.60;;
16699;SDS011;8466;52.286;21.124;2023-11-18T07:04:12;9.93;;;7.60;;
16699;SDS011;8466;52.286;21.124;2023-11-18T07:06:42;9.23;;;8.30;;
16699;SDS011;8466;52.286;21.124;2023-11-18T07:09:11;9.63;;;7.97;;
16699;SDS011;8466;52.286;21.124;2023-11-18T07:11:46;8.43;;;7.40;;
16699;SDS011;8466;52.286;21.124;2023-11-18T07:14:18;7.70;;;6.53;;
16699;SDS011;8466;52.286;21.124;2023-11-18T07:16:47;9.43;;;7.60;;
16699;SDS011;8466;52.286;21.124;2023-11-18T07:19:25;14.60;;;6.63;;
16699;SDS011;8466;52.286;21.124;2023-11-18T07:21:55;8.10;;;7.30;;
16699;SDS011;8466;52.286;21.124;2023-11-18T07:24:25;11.20;;;7.13;;
16699;SDS011;8466;52.286;21.124;2023-11-18T07:27:01;7.97;;;7.17;;
16699;SDS011;8466;52.286;21.124;2023-11-18T07:31:19;7.63;;;6.60;;
16699;SDS011;8466;52.286;21.124;2023-11-18T07:34:12;7.50;;;6.70;;
16699;SDS011;8466;52.286;21.124;2023-11-18T07:41:09;9.70;;;7.40;;
16699;SDS011;8466;52.286;21.124;2023-11-18T08:30:33;10.33;;;9.33;;
16699;SDS011;8466;52.286;21.124;2023-11-18T08:33:03;14.23;;;9.70;;
16699;SDS011;8466;52.286;21.124;2023-11-18T08:35:38;11.30;;;9.67;;
16699;SDS011;8466;52.286;21.124;2023-11-18T08:38:58;14.98;;;12.25;;
16699;SDS011;8466;52.286;21.124;2023-11-18T08:41:48;17.07;;;11.70;;
16699;SDS011;8466;52.286;21.124;2023-11-18T09:03:29;12.47;;;9.10;;
16699;SDS011;8466;52.286;21.124;2023-11-18T09:06:03;14.00;;;9.70;;
16699;SDS011;8466;52.286;21.124;2023-11-18T09:08:51;10.67;;;8.97;;
16699;SDS011;8466;52.286;21.124;2023-11-18T09:11:25;12.47;;;9.60;;
16699;SDS011;8466;52.286;21.124;2023-11-18T09:13:59;12.03;;;8.37;;
16699;SDS011;8466;52.286;21.124;2023-11-18T09:16:31;10.77;;;8.70;;
16699;SDS011;8466;52.286;21.124;2023-11-18T09:19:05;11.97;;;9.90;;
16699;SDS011;8466;52.286;21.124;2023-11-18T09:21:33;12.27;;;9.73;;
16699;SDS011;8466;52.286;21.124;2023-11-18T09:24:05;13.13;;;9.70;;
16699;SDS011;8466;52.286;21.124;2023-11-18T09:26:38;11.27;;;9.87;;
16699;SDS011;8466;52.286;21.124;2023-11-18T09:29:33;10.55;;;9.55;;
16699;SDS011;8466;52.286;21.124;2023-11-18T09:32:08;11.13;;;9.97;;
16699;SDS011;8466;52.286;21.124;2023-11-18T09:35:20;10.63;;;9.50;;
16699;SDS011;8466;52.286;21.124;2023-11-18T10:13:38;10.50;;;9.40;;
16699;SDS011;8466;52.286;21.124;2023-11-18T10:16:41;10.77;;;9.67;;
16699;SDS011;8466;52.286;21.124;2023-11-18T10:49:19;10.83;;;8.87;;
16699;SDS011;8466;52.286;21.124;2023-11-18T10:52:27;12.57;;;9.63;;
16699;SDS011;8466;52.286;21.124;2023-11-18T10:55:38;14.07;;;10.33;;
16699;SDS011;8466;52.286;21.124;2023-11-18T10:58:42;12.40;;;9.70;;
16699;SDS011;8466;52.286;21.124;2023-11-18T11:02:01;12.07;;;9.70;;
16699;SDS011;8466;52.286;21.124;2023-11-18T11:04:53;12.83;;;10.40;;
16699;SDS011;8466;52.286;21.124;2023-11-18T11:07:40;14.03;;;10.90;;
16699;SDS011;8466;52.286;21.124;2023-11-18T11:10:24;12.50;;;10.43;;
16699;SDS011;8466;52.286;21.124;2023-11-18T11:13:38;16.47;;;11.20;;
16699;SDS011;8466;52.286;21.124;2023-11-18T11:16:37;14.00;;;10.90;;
16699;SDS011;8466;52.286;21.124;2023-11-18T11:19:13;15.27;;;11.57;;
16699;SDS011;8466;52.286;21.124;2023-11-18T11:21:50;13.60;;;11.23;;
16699;SDS011;8466;52.286;21.124;2023-11-18T11:24:25;12.07;;;10.10;;
16699;SDS011;8466;52.286;21.124;2023-11-18T11:27:05;15.40;;;11.83;;
16699;SDS011;8466;52.286;21.124;2023-11-18T11:29:45;15.07;;;11.27;;
16699;SDS011;8466;52.286;21.124;2023-11-18T11:32:22;11.87;;;10.53;;
16699;SDS011;8466;52.286;21.124;2023-11-18T11:35:00;13.93;;;11.07;;
16699;SDS011;8466;52.286;21.124;2023-11-18T11:37:35;14.27;;;11.03;;
16699;SDS011;8466;52.286;21.124;2023-11-18T11:40:07;13.93;;;11.67;;
16699;SDS011;8466;52.286;21.124;2023-11-18T11:42:38;15.00;;;11.50;;
16699;SDS011;8466;52.286;21.124;2023-11-18T11:45:09;15.37;;;11.07;;
16699;SDS011;8466;52.286;21.124;2023-11-18T11:47:47;13.73;;;10.70;;
16699;SDS011;8466;52.286;21.124;2023-11-18T11:50:45;13.50;;;12.13;;
16699;SDS011;8466;52.286;21.124;2023-11-18T11:53:24;12.37;;;11.07;;
16699;SDS011;8466;52.286;21.124;2023-11-18T11:55:58;13.10;;;10.90;;
16699;SDS011;8466;52.286;21.124;2023-11-18T11:58:34;13.60;;;10.97;;
16699;SDS011;8466;52.286;21.124;2023-11-18T12:01:14;13.87;;;11.73;;
16699;SDS011;8466;52.286;21.124;2023-11-18T12:03:46;12.43;;;10.90;;
16699;SDS011;8466;52.286;21.124;2023-11-18T12:06:20;14.30;;;12.23;;
16699;SDS011;8466;52.286;21.124;2023-11-18T12:08:51;13.30;;;10.60;;
16699;SDS011;8466;52.286;21.124;2023-11-18T12:11:21;13.03;;;11.10;;
16699;SDS011;8466;52.286;21.124;2023-11-18T12:16:57;13.77;;;11.47;;
16699;SDS011;8466;52.286;21.124;2023-11-18T12:19:34;13.87;;;11.27;;
16699;SDS011;8466;52.286;21.124;2023-11-18T12:22:15;16.10;;;13.60;;
16699;SDS011;8466;52.286;21.124;2023-11-18T12:28:14;19.17;;;13.70;;
16699;SDS011;8466;52.286;21.124;2023-11-18T12:30:48;18.60;;;14.30;;
16699;SDS011;8466;52.286;21.124;2023-11-18T12:33:23;14.87;;;12.43;;
16699;SDS011;8466;52.286;21.124;2023-11-18T12:39:01;16.00;;;13.10;;
16699;SDS011;8466;52.286;21.124;2023-11-18T12:42:01;15.53;;;13.17;;
16699;SDS011;8466;52.286;21.124;2023-11-18T12:44:51;17.33;;;13.60;;
16699;SDS011;8466;52.286;21.124;2023-11-18T12:47:41;18.30;;;14.37;;
16699;SDS011;8466;52.286;21.124;2023-11-18T12:50:13;20.27;;;16.13;;
16699;SDS011;8466;52.286;21.124;2023-11-18T12:52:51;19.57;;;15.13;;
16699;SDS011;8466;52.286;21.124;2023-11-18T12:55:26;18.33;;;14.57;;
16699;SDS011;8466;52.286;21.124;2023-11-18T12:58:00;19.83;;;15.47;;
16699;SDS011;8466;52.286;21.124;2023-11-18T13:00:32;21.10;;;16.17;;
16699;SDS011;8466;52.286;21.124;2023-11-18T13:03:03;20.03;;;15.87;;
16699;SDS011;8466;52.286;21.124;2023-11-18T13:05:37;19.27;;;16.20;;
16699;SDS011;8466;52.286;21.124;2023-11-18T13:08:06;19.57;;;15.63;;
16699;SDS011;8466;52.286;21.124;2023-11-18T13:10:41;20.87;;;15.17;;
16699;SDS011;8466;52.286;21.124;2023-11-18T13:13:11;21.27;;;16.87;;
16699;SDS011;8466;52.286;21.124;2023-11-18T13:15:44;20.77;;;15.33;;
16699;SDS011;8466;52.286;21.124;2023-11-18T13:18:15;19.87;;;15.43;;
16699;SDS011;8466;52.286;21.124;2023-11-18T13:20:53;21.00;;;15.83;;
16699;SDS011;8466;52.286;21.124;2023-11-18T13:23:27;19.13;;;15.30;;
16699;SDS011;8466;52.286;21.124;2023-11-18T13:25:58;18.50;;;14.80;;
16699;SDS011;8466;52.286;21.124;2023-11-18T13:28:29;18.97;;;14.37;;
16699;SDS011;8466;52.286;21.124;2023-11-18T13:30:58;18.60;;;14.43;;
16699;SDS011;8466;52.286;21.124;2023-11-18T13:33:28;17.73;;;14.10;;
16699;SDS011;8466;52.286;21.124;2023-11-18T13:35:57;18.43;;;13.80;;
16699;SDS011;8466;52.286;21.124;2023-11-18T13:38:26;18.30;;;14.17;;
16699;SDS011;8466;52.286;21.124;2023-11-18T13:40:57;16.00;;;12.87;;
16699;SDS011;8466;52.286;21.124;2023-11-18T13:43:40;17.20;;;13.43;;
16699;SDS011;8466;52.286;21.124;2023-11-18T13:46:10;17.23;;;13.67;;
16699;SDS011;8466;52.286;21.124;2023-11-18T13:48:40;18.77;;;14.70;;
16699;SDS011;8466;52.286;21.124;2023-11-18T13:51:09;21.47;;;16.73;;
16699;SDS011;8466;52.286;21.124;2023-11-18T13:53:40;20.07;;;16.27;;
16699;SDS011;8466;52.286;21.124;2023-11-18T13:56:20;20.80;;;15.53;;
16699;SDS011;8466;52.286;21.124;2023-11-18T13:58:50;17.77;;;13.43;;
16699;SDS011;8466;52.286;21.124;2023-11-18T14:01:20;21.20;;;15.40;;
16699;SDS011;8466;52.286;21.124;2023-11-18T14:03:49;19.53;;;15.33;;
16699;SDS011;8466;52.286;21.124;2023-11-18T14:06:21;19.83;;;16.17;;
16699;SDS011;8466;52.286;21.124;2023-11-18T14:08:50;22.33;;;17.47;;
16699;SDS011;8466;52.286;21.124;2023-11-18T14:11:20;21.50;;;18.07;;
16699;SDS011;8466;52.286;21.124;2023-11-18T14:14:00;27.33;;;20.90;;
16699;SDS011;8466;52.286;21.124;2023-11-18T14:16:29;26.17;;;20.20;;
16699;SDS011;8466;52.286;21.124;2023-11-18T14:18:57;24.13;;;19.07;;
16699;SDS011;8466;52.286;21.124;2023-11-18T14:21:26;23.40;;;17.93;;
16699;SDS011;8466;52.286;21.124;2023-11-18T14:23:55;22.70;;;17.67;;
16699;SDS011;8466;52.286;21.124;2023-11-18T14:26:31;22.73;;;17.17;;
16699;SDS011;8466;52.286;21.124;2023-11-18T14:29:00;18.13;;;14.23;;
16699;SDS011;8466;52.286;21.124;2023-11-18T14:31:35;23.60;;;17.57;;
16699;SDS011;8466;52.286;21.124;2023-11-18T14:34:06;25.77;;;18.77;;
16699;SDS011;8466;52.286;21.124;2023-11-18T14:36:37;22.07;;;17.30;;
16699;SDS011;8466;52.286;21.124;2023-11-18T14:39:08;21.90;;;16.53;;
16699;SDS011;8466;52.286;21.124;2023-11-18T14:41:43;24.30;;;17.80;;
16699;SDS011;8466;52.286;21.124;2023-11-18T14:44:12;21.43;;;17.13;;
16699;SDS011;8466;52.286;21.124;2023-11-18T14:46:41;30.17;;;20.80;;
16699;SDS011;8466;52.286;21.124;2023-11-18T14:49:10;29.83;;;21.70;;
16699;SDS011;8466;52.286;21.124;2023-11-18T14:51:39;34.77;;;25.47;;
16699;SDS011;8466;52.286;21.124;2023-11-18T14:54:10;35.07;;;26.20;;
16699;SDS011;8466;52.286;21.124;2023-11-18T14:56:39;42.23;;;30.23;;
16699;SDS011;8466;52.286;21.124;2023-11-18T14:59:10;51.40;;;36.23;;
16699;SDS011;8466;52.286;21.124;2023-11-18T15:01:39;47.43;;;33.40;;
16699;SDS011;8466;52.286;21.124;2023-11-18T15:04:11;43.57;;;28.23;;
16699;SDS011;8466;52.286;21.124;2023-11-18T15:06:39;41.40;;;26.57;;
16699;SDS011;8466;52.286;21.124;2023-11-18T15:09:08;43.33;;;28.03;;
16699;SDS011;8466;52.286;21.124;2023-11-18T15:11:37;38.28;;;26.08;;
16699;SDS011;8466;52.286;21.124;2023-11-18T15:14:06;31.57;;;22.43;;
16699;SDS011;8466;52.286;21.124;2023-11-18T15:16:40;26.90;;;19.07;;
16699;SDS011;8466;52.286;21.124;2023-11-18T15:19:10;28.70;;;21.70;;
16699;SDS011;8466;52.286;21.124;2023-11-18T15:21:39;25.37;;;18.50;;
16699;SDS011;8466;52.286;21.124;2023-11-18T15:24:08;20.67;;;15.30;;
16699;SDS011;8466;52.286;21.124;2023-11-18T15:26:37;21.53;;;16.30;;
16699;SDS011;8466;52.286;21.124;2023-11-18T15:29:06;29.03;;;20.07;;
16699;SDS011;8466;52.286;21.124;2023-11-18T15:31:43;23.60;;;17.03;;
16699;SDS011;8466;52.286;21.124;2023-11-18T15:34:20;23.27;;;16.60;;
16699;SDS011;8466;52.286;21.124;2023-11-18T15:36:49;30.80;;;20.43;;
16699;SDS011;8466;52.286;21.124;2023-11-18T15:39:18;31.03;;;21.20;;
16699;SDS011;8466;52.286;21.124;2023-11-18T15:41:47;33.10;;;22.90;;
16699;SDS011;8466;52.286;21.124;2023-11-18T15:44:19;33.13;;;21.80;;
16699;SDS011;8466;52.286;21.124;2023-11-18T15:46:50;22.93;;;16.03;;
16699;SDS011;8466;52.286;21.124;2023-11-18T15:49:25;20.90;;;16.53;;
16699;SDS011;8466;52.286;21.124;2023-11-18T15:51:57;24.40;;;17.80;;
16699;SDS011;8466;52.286;21.124;2023-11-18T15:54:25;26.67;;;18.67;;
16699;SDS011;8466;52.286;21.124;2023-11-18T15:57:05;25.23;;;18.20;;
16699;SDS011;8466;52.286;21.124;2023-11-18T15:59:37;22.37;;;16.33;;
16699;SDS011;8466;52.286;21.124;2023-11-18T16:02:07;29.17;;;21.37;;
16699;SDS011;8466;52.286;21.124;2023-11-18T16:04:36;31.03;;;21.90;;
16699;SDS011;8466;52.286;21.124;2023-11-18T16:07:05;29.17;;;21.17;;
16699;SDS011;8466;52.286;21.124;2023-11-18T16:09:34;27.73;;;20.17;;
16699;SDS011;8466;52.286;21.124;2023-11-18T16:12:03;26.97;;;18.53;;
16699;SDS011;8466;52.286;21.124;2023-11-18T16:14:33;28.50;;;20.03;;
16699;SDS011;8466;52.286;21.124;2023-11-18T16:17:03;34.53;;;24.73;;
16699;SDS011;8466;52.286;21.124;2023-11-18T16:19:35;37.60;;;24.80;;
16699;SDS011;8466;52.286;21.124;2023-11-18T16:22:04;31.57;;;20.73;;
16699;SDS011;8466;52.286;21.124;2023-11-18T16:24:32;38.87;;;25.00;;
16699;SDS011;8466;52.286;21.124;2023-11-18T16:27:01;35.80;;;24.37;;
16699;SDS011;8466;52.286;21.124;2023-11-18T16:29:30;42.63;;;28.87;;
16699;SDS011;8466;52.286;21.124;2023-11-18T16:31:59;38.50;;;26.40;;
16699;SDS011;8466;52.286;21.124;2023-11-18T16:34:28;26.17;;;18.47;;
16699;SDS011;8466;52.286;21.124;2023-11-18T16:36:58;31.60;;;22.30;;
16699;SDS011;8466;52.286;21.124;2023-11-18T16:39:28;43.23;;;30.40;;
16699;SDS011;8466;52.286;21.124;2023-11-18T16:41:57;44.13;;;31.03;;
16699;SDS011;8466;52.286;21.124;2023-11-18T16:44:26;38.83;;;27.30;;
16699;SDS011;8466;52.286;21.124;2023-11-18T16:46:56;34.80;;;24.57;;
16699;SDS011;8466;52.286;21.124;2023-11-18T16:49:25;41.03;;;27.67;;
16699;SDS011;8466;52.286;21.124;2023-11-18T16:51:54;29.43;;;20.60;;
16699;SDS011;8466;52.286;21.124;2023-11-18T16:54:28;30.20;;;21.27;;
16699;SDS011;8466;52.286;21.124;2023-11-18T16:57:06;42.50;;;29.80;;
16699;SDS011;8466;52.286;21.124;2023-11-18T16:59:35;34.20;;;24.47;;
16699;SDS011;8466;52.286;21.124;2023-11-18T17:02:04;36.83;;;24.40;;
16699;SDS011;8466;52.286;21.124;2023-11-18T17:04:36;37.90;;;27.27;;
16699;SDS011;8466;52.286;21.124;2023-11-18T17:07:07;39.73;;;29.87;;
16699;SDS011;8466;52.286;21.124;2023-11-18T17:09:42;36.60;;;26.10;;
16699;SDS011;8466;52.286;21.124;2023-11-18T17:12:13;34.77;;;24.67;;
16699;SDS011;8466;52.286;21.124;2023-11-18T17:14:42;28.97;;;19.93;;
16699;SDS011;8466;52.286;21.124;2023-11-18T17:17:16;28.37;;;20.73;;
16699;SDS011;8466;52.286;21.124;2023-11-18T17:19:45;33.53;;;23.20;;
16699;SDS011;8466;52.286;21.124;2023-11-18T17:22:17;31.97;;;21.10;;
16699;SDS011;8466;52.286;21.124;2023-11-18T17:24:57;26.53;;;19.20;;
16699;SDS011;8466;52.286;21.124;2023-11-18T17:27:59;24.93;;;18.10;;
16699;SDS011;8466;52.286;21.124;2023-11-18T17:30:33;25.30;;;18.33;;
16699;SDS011;8466;52.286;21.124;2023-11-18T17:33:04;24.23;;;17.97;;